createdAt,value
2022-10-26T00:02:23.761Z,101201.63
2022-10-26T00:07:45.468Z,101196.09
2022-10-26T00:13:11.143Z,101184.16
2022-10-26T00:18:32.788Z,101181.63
2022-10-26T00:23:54.460Z,101183.31
2022-10-26T00:29:16.295Z,101182.72
2022-10-26T00:34:38.062Z,101179.97
2022-10-26T00:39:59.773Z,101171.84
2022-10-26T00:45:24.706Z,101160.75
2022-10-26T00:50:48.044Z,101161.63
2022-10-26T00:56:09.871Z,101153.53
2022-10-26T01:01:33.843Z,101147.16
2022-10-26T01:06:56.061Z,101147.16
2022-10-26T01:12:17.767Z,101144.38
2022-10-26T01:17:49.073Z,101136.03
2022-10-26T01:23:27.805Z,101133.28
2022-10-26T01:29:06.035Z,101131.81
2022-10-26T01:34:44.590Z,101122.41
2022-10-26T01:40:14.996Z,101120.47
2022-10-26T01:45:41.625Z,101113.50
2022-10-26T01:51:04.979Z,101107.09
2022-10-26T01:56:31.455Z,101107.97
2022-10-26T02:02:10.963Z,101108.78
2022-10-26T02:07:53.923Z,101094.09
2022-10-26T02:13:30.437Z,101093.47
2022-10-26T02:19:03.221Z,101099.03
2022-10-26T02:24:26.986Z,101092.63
2022-10-26T02:29:51.006Z,101098.16
2022-10-26T02:35:16.614Z,101097.34
2022-10-26T02:40:39.131Z,101084.56
2022-10-26T02:46:08.204Z,101083.47
2022-10-26T02:51:38.658Z,101082.63
2022-10-26T02:57:06.665Z,101084.56
2022-10-26T03:02:30.402Z,101083.69
2022-10-26T03:07:52.373Z,101085.66
2022-10-26T03:13:14.230Z,101082.03
2022-10-26T03:18:35.865Z,101078.41
2022-10-26T03:23:57.695Z,101081.19
2022-10-26T03:29:19.322Z,101081.19
2022-10-26T03:34:40.995Z,101082.28
2022-10-26T03:40:02.705Z,101086.72
2022-10-26T03:45:24.465Z,101085.03
2022-10-26T03:50:46.136Z,101081.44
2022-10-26T03:56:08.020Z,101083.38
2022-10-26T04:01:29.754Z,101078.06
2022-10-26T04:06:51.438Z,101070.56
2022-10-26T04:12:13.107Z,101073.34
2022-10-26T04:17:34.840Z,101074.44
2022-10-26T04:23:06.182Z,101087.22
2022-10-26T04:28:27.796Z,101085.53
2022-10-26T04:33:49.496Z,101084.72
2022-10-26T04:39:11.198Z,101079.16
2022-10-26T04:44:33.160Z,101078.31
2022-10-26T04:49:54.786Z,101071.94
2022-10-26T04:55:16.516Z,101078.31
2022-10-26T05:00:38.310Z,101090.50
2022-10-26T05:06:00.115Z,101088.56
2022-10-26T05:11:21.765Z,101101.34
2022-10-26T05:16:44.726Z,101099.19
2022-10-26T05:22:06.506Z,101102.56
2022-10-26T05:27:28.249Z,101099.53
2022-10-26T05:33:01.160Z,101111.81
2022-10-26T05:38:22.918Z,101113.13
2022-10-26T05:43:47.557Z,101102.03
2022-10-26T05:49:09.320Z,101114.81
2022-10-26T05:54:30.954Z,101102.91
2022-10-26T05:59:52.929Z,101095.66
2022-10-26T06:05:24.068Z,101093.72
2022-10-26T06:10:46.402Z,101102.28
2022-10-26T06:16:33.489Z,101107.59
2022-10-26T06:22:32.397Z,101111.44
2022-10-26T06:28:29.260Z,101129.44
2022-10-26T06:33:57.582Z,101133.41
2022-10-26T06:39:20.576Z,101141.09
2022-10-26T06:44:42.757Z,101138.16
2022-10-26T06:50:20.571Z,101135.50
2022-10-26T06:55:44.489Z,101149.34
2022-10-26T07:01:07.032Z,101157.84
2022-10-26T07:06:28.785Z,101197.69
2022-10-26T07:11:50.419Z,101197.38
2022-10-26T07:17:12.225Z,101191.25
2022-10-26T07:22:33.964Z,101198.69
2022-10-26T07:27:59.588Z,101210.38
2022-10-26T07:33:21.338Z,101221.06
2022-10-26T07:38:43.021Z,101225.94
2022-10-26T07:44:04.745Z,101238.78
2022-10-26T07:49:27.893Z,101237.19
2022-10-26T07:54:49.751Z,101239.25
2022-10-26T08:00:12.031Z,101252.63
2022-10-26T08:05:33.774Z,101240.72
2022-10-26T08:10:55.419Z,101250.00
2022-10-26T08:16:17.721Z,101245.00
2022-10-26T08:21:40.486Z,101243.91
2022-10-26T08:27:02.441Z,101244.94
2022-10-26T08:32:24.136Z,101277.03
2022-10-26T08:37:45.827Z,101289.66
2022-10-26T08:43:19.441Z,101287.31
2022-10-26T08:48:49.946Z,101302.88
2022-10-26T08:54:22.918Z,101305.97
2022-10-26T09:00:07.536Z,101299.34
2022-10-26T09:05:39.074Z,101305.00
2022-10-26T09:11:11.375Z,101306.25
2022-10-26T09:16:51.095Z,101320.88
2022-10-26T09:22:38.664Z,101317.16
2022-10-26T09:28:03.430Z,101336.75
2022-10-26T09:33:26.647Z,101344.50
2022-10-26T09:38:51.241Z,101341.59
2022-10-26T09:44:26.226Z,101353.19
2022-10-26T09:49:53.609Z,101359.63
2022-10-26T09:55:15.822Z,101372.06
2022-10-26T10:00:38.128Z,101378.13
2022-10-26T10:06:16.511Z,101380.91
2022-10-26T10:11:42.174Z,101397.78
2022-10-26T10:23:03.746Z,101405.78
2022-10-26T10:28:27.714Z,101403.50
2022-10-26T10:33:49.719Z,101423.19
2022-10-26T10:39:33.728Z,101441.78
2022-10-26T10:44:57.547Z,101451.19
2022-10-26T10:50:20.736Z,101454.19
2022-10-26T10:55:53.184Z,101456.16
2022-10-26T11:01:21.925Z,101454.47
2022-10-26T11:06:45.581Z,101458.28
2022-10-26T11:12:27.546Z,101464.72
2022-10-26T11:18:01.211Z,101475.22
2022-10-26T11:23:32.991Z,101479.91
2022-10-26T11:28:57.396Z,101484.63
2022-10-26T11:34:39.204Z,101500.19
2022-10-26T11:40:05.491Z,101507.91
2022-10-26T11:45:39.289Z,101513.22
2022-10-26T11:51:01.637Z,101512.63
2022-10-26T11:56:36.804Z,101507.06
2022-10-26T12:02:16.477Z,101519.03
2022-10-26T12:07:40.657Z,101509.25
2022-10-26T12:13:28.021Z,101515.66
2022-10-26T12:19:06.733Z,101516.50
2022-10-26T12:24:33.656Z,101531.69
2022-10-26T12:30:17.674Z,101531.47
2022-10-26T12:35:41.794Z,101539.19
2022-10-26T12:41:10.863Z,101534.72
2022-10-26T12:46:32.435Z,101536.63
2022-10-26T12:51:54.144Z,101534.72
2022-10-26T12:57:21.931Z,101544.13
2022-10-26T13:03:09.381Z,101541.97
2022-10-26T13:08:45.507Z,101548.59
2022-10-26T13:14:16.008Z,101554.63
2022-10-26T13:19:47.166Z,101552.47
2022-10-26T13:25:23.856Z,101555.25
2022-10-26T13:30:48.172Z,101556.31
2022-10-26T13:36:23.847Z,101566.34
2022-10-26T13:41:47.630Z,101561.88
2022-10-26T13:47:24.111Z,101565.53
2022-10-26T13:52:50.678Z,101572.16
2022-10-26T13:58:31.281Z,101584.09
2022-10-26T14:03:52.997Z,101587.34
2022-10-26T14:09:17.142Z,101606.56
2022-10-26T14:14:40.619Z,101602.09
2022-10-26T14:20:04.841Z,101602.91
2022-10-26T14:25:42.305Z,101614.88
2022-10-26T14:31:23.256Z,101614.03
2022-10-26T14:37:01.802Z,101619.56
2022-10-26T14:42:44.664Z,101641.78
2022-10-26T14:48:07.713Z,101650.59
2022-10-26T14:53:36.557Z,101655.06
2022-10-26T14:58:58.787Z,101658.91
2022-10-26T15:04:32.938Z,101665.59
2022-10-26T15:09:54.606Z,101669.66
2022-10-26T15:15:16.323Z,101681.00
2022-10-26T15:20:39.809Z,101677.38
2022-10-26T15:26:03.800Z,101683.78
2022-10-26T15:31:31.962Z,101690.41
2022-10-26T15:36:53.645Z,101685.94
2022-10-26T15:42:15.332Z,101700.44
2022-10-26T15:47:36.997Z,101706.00
2022-10-26T15:53:06.433Z,101709.84
2022-10-26T15:58:31.497Z,101721.78
2022-10-26T16:03:53.936Z,101714.56
2022-10-26T16:09:18.410Z,101724.81
2022-10-26T16:15:04.257Z,101727.84
2022-10-26T16:20:24.516Z,101750.88
2022-10-26T16:25:46.874Z,101751.97
2022-10-26T16:31:11.889Z,101759.44
2022-10-26T16:36:34.748Z,101760.75
2022-10-26T16:41:56.811Z,101776.31
2022-10-26T16:52:42.269Z,101763.75
2022-10-26T16:58:04.135Z,101774.03
2022-10-26T17:03:26.266Z,101770.69
2022-10-26T17:08:48.159Z,101790.66
2022-10-26T17:14:09.923Z,101799.00
2022-10-26T17:19:31.643Z,101804.56
2022-10-26T17:24:53.303Z,101808.06
2022-10-26T17:30:15.077Z,101820.03
2022-10-26T17:35:37.207Z,101826.09
2022-10-26T17:41:06.445Z,101829.47
2022-10-26T17:46:28.234Z,101838.06
2022-10-26T17:51:49.894Z,101852.72
2022-10-26T17:57:11.530Z,101864.56
2022-10-26T18:02:37.638Z,101869.44
2022-10-26T18:07:59.460Z,101871.25
2022-10-26T18:13:21.991Z,101886.97
2022-10-26T18:18:50.078Z,101884.50
2022-10-26T18:24:11.849Z,101887.81
2022-10-26T18:29:36.146Z,101891.53
2022-10-26T18:35:00.542Z,101897.19
2022-10-26T18:40:22.225Z,101896.81
2022-10-26T18:45:44.519Z,101900.06
2022-10-26T18:51:11.249Z,101913.63
2022-10-26T18:56:33.035Z,101917.47
2022-10-26T19:01:54.856Z,101928.19
2022-10-26T19:07:17.088Z,101933.16
2022-10-26T19:12:38.827Z,101938.97
2022-10-26T19:18:02.621Z,101942.44
2022-10-26T19:23:24.263Z,101952.09
2022-10-26T19:28:46.306Z,101951.47
2022-10-26T19:34:08.361Z,101952.78
2022-10-26T19:39:30.022Z,101956.03
2022-10-26T19:44:51.641Z,101960.38
2022-10-26T19:50:13.402Z,101967.03
2022-10-26T19:55:35.094Z,101970.56
2022-10-26T20:01:01.705Z,101980.88
2022-10-26T20:06:23.442Z,101981.19
2022-10-26T20:11:46.649Z,101976.41
2022-10-26T20:17:08.361Z,101987.06
2022-10-26T20:22:29.988Z,101998.19
2022-10-26T20:27:51.947Z,101984.50
2022-10-26T20:33:14.093Z,101988.16
2022-10-26T20:38:36.298Z,102008.44
2022-10-26T20:43:58.342Z,102011.47
2022-10-26T20:49:20.322Z,102008.91
2022-10-26T20:54:48.618Z,102013.41
2022-10-26T21:00:11.514Z,102007.00
2022-10-26T21:05:36.002Z,102015.34
2022-10-26T21:10:57.734Z,102021.16
2022-10-26T21:16:19.475Z,102026.94
2022-10-26T21:21:41.224Z,102017.34
2022-10-26T21:27:03.270Z,102020.63
2022-10-26T21:32:24.976Z,102027.06
2022-10-26T21:37:46.698Z,102025.88
2022-10-26T21:43:08.348Z,102024.00
2022-10-26T21:48:31.370Z,102023.63
2022-10-26T21:53:53.082Z,102017.69
2022-10-26T21:59:14.738Z,102015.38
2022-10-26T22:04:36.426Z,102016.91
2022-10-26T22:10:10.348Z,102020.75
2022-10-26T22:15:32.500Z,102025.09
2022-10-26T22:21:00.245Z,102020.63
2022-10-26T22:26:23.984Z,102022.78
2022-10-26T22:31:45.657Z,102026.63
2022-10-26T22:37:07.318Z,102021.53
2022-10-26T22:42:28.934Z,102022.59
2022-10-26T22:47:50.590Z,102022.03
2022-10-26T22:53:12.246Z,102023.09
2022-10-26T22:58:37.591Z,102018.63
2022-10-26T23:04:00.509Z,102018.00
2022-10-26T23:09:22.141Z,102014.59
2022-10-26T23:14:43.799Z,102010.13
2022-10-26T23:20:06.054Z,102012.25
2022-10-26T23:25:28.728Z,102010.56
2022-10-26T23:30:50.391Z,102015.53
2022-10-26T23:36:12.538Z,102022.16
2022-10-26T23:41:34.275Z,102020.47
2022-10-26T23:46:55.924Z,102018.75
2022-10-26T23:52:17.596Z,102019.84
2022-10-26T23:57:39.798Z,102023.69
